sensor_id;sensor_type;location;lat;lon;timestamp;P1;durP1;ratioP1;P2;durP2;ratioP2
69795;SDS011;57073;45.650;9.612;2023-04-23T00:03:12;12.73;;;8.77;;
69795;SDS011;57073;45.650;9.612;2023-04-23T00:08:13;12.27;;;9.38;;
69795;SDS011;57073;45.650;9.612;2023-04-23T00:13:16;13.30;;;9.23;;
69795;SDS011;57073;45.650;9.612;2023-04-23T00:18:17;13.83;;;8.97;;
69795;SDS011;57073;45.650;9.612;2023-04-23T00:23:17;12.47;;;8.73;;
69795;SDS011;57073;45.650;9.612;2023-04-23T00:28:17;11.20;;;8.43;;
69795;SDS011;57073;45.650;9.612;2023-04-23T00:33:18;12.63;;;8.17;;
69795;SDS011;57073;45.650;9.612;2023-04-23T00:38:18;11.70;;;7.67;;
69795;SDS011;57073;45.650;9.612;2023-04-23T00:43:20;11.23;;;8.30;;
69795;SDS011;57073;45.650;9.612;2023-04-23T00:48:21;13.13;;;9.03;;
69795;SDS011;57073;45.650;9.612;2023-04-23T00:53:23;13.05;;;9.45;;
69795;SDS011;57073;45.650;9.612;2023-04-23T00:58:23;14.50;;;9.90;;
69795;SDS011;57073;45.650;9.612;2023-04-23T01:03:24;14.77;;;9.30;;
69795;SDS011;57073;45.650;9.612;2023-04-23T01:08:25;14.13;;;9.40;;
69795;SDS011;57073;45.650;9.612;2023-04-23T01:13:26;12.73;;;8.97;;
69795;SDS011;57073;45.650;9.612;2023-04-23T01:18:28;13.30;;;8.95;;
69795;SDS011;57073;45.650;9.612;2023-04-23T01:23:29;13.37;;;9.30;;
69795;SDS011;57073;45.650;9.612;2023-04-23T01:28:30;15.67;;;9.87;;
69795;SDS011;57073;45.650;9.612;2023-04-23T01:33:31;14.35;;;9.30;;
69795;SDS011;57073;45.650;9.612;2023-04-23T01:38:32;12.82;;;9.23;;
69795;SDS011;57073;45.650;9.612;2023-04-23T01:43:34;13.90;;;9.77;;
69795;SDS011;57073;45.650;9.612;2023-04-23T01:48:36;13.35;;;9.13;;
69795;SDS011;57073;45.650;9.612;2023-04-23T01:53:37;13.77;;;9.20;;
69795;SDS011;57073;45.650;9.612;2023-04-23T01:58:37;12.77;;;9.00;;
69795;SDS011;57073;45.650;9.612;2023-04-23T02:03:37;13.40;;;8.67;;
69795;SDS011;57073;45.650;9.612;2023-04-23T02:08:38;13.23;;;8.67;;
69795;SDS011;57073;45.650;9.612;2023-04-23T02:13:38;13.17;;;9.43;;
69795;SDS011;57073;45.650;9.612;2023-04-23T02:18:38;11.90;;;8.57;;
69795;SDS011;57073;45.650;9.612;2023-04-23T02:23:39;13.30;;;8.40;;
69795;SDS011;57073;45.650;9.612;2023-04-23T02:28:39;11.17;;;8.13;;
69795;SDS011;57073;45.650;9.612;2023-04-23T02:33:40;11.23;;;7.47;;
69795;SDS011;57073;45.650;9.612;2023-04-23T02:38:41;13.03;;;8.20;;
69795;SDS011;57073;45.650;9.612;2023-04-23T02:43:43;12.13;;;8.10;;
69795;SDS011;57073;45.650;9.612;2023-04-23T02:48:44;13.63;;;8.33;;
69795;SDS011;57073;45.650;9.612;2023-04-23T02:53:44;11.53;;;8.10;;
69795;SDS011;57073;45.650;9.612;2023-04-23T02:58:44;13.37;;;8.23;;
69795;SDS011;57073;45.650;9.612;2023-04-23T03:03:45;11.53;;;7.90;;
69795;SDS011;57073;45.650;9.612;2023-04-23T03:08:45;12.73;;;8.57;;
69795;SDS011;57073;45.650;9.612;2023-04-23T03:13:46;12.87;;;7.70;;
69795;SDS011;57073;45.650;9.612;2023-04-23T03:18:46;11.87;;;8.10;;
69795;SDS011;57073;45.650;9.612;2023-04-23T03:23:46;12.60;;;7.47;;
69795;SDS011;57073;45.650;9.612;2023-04-23T03:28:46;11.77;;;7.57;;
69795;SDS011;57073;45.650;9.612;2023-04-23T03:33:47;10.70;;;7.33;;
69795;SDS011;57073;45.650;9.612;2023-04-23T03:38:47;10.67;;;7.80;;
69795;SDS011;57073;45.650;9.612;2023-04-23T03:43:47;9.67;;;6.87;;
69795;SDS011;57073;45.650;9.612;2023-04-23T03:48:48;11.57;;;7.33;;
69795;SDS011;57073;45.650;9.612;2023-04-23T03:53:48;9.50;;;6.53;;
69795;SDS011;57073;45.650;9.612;2023-04-23T03:58:49;9.85;;;6.88;;
69795;SDS011;57073;45.650;9.612;2023-04-23T04:03:49;10.23;;;7.43;;
69795;SDS011;57073;45.650;9.612;2023-04-23T04:08:50;11.27;;;7.10;;
69795;SDS011;57073;45.650;9.612;2023-04-23T04:13:50;10.50;;;7.03;;
69795;SDS011;57073;45.650;9.612;2023-04-23T04:18:50;11.13;;;6.77;;
69795;SDS011;57073;45.650;9.612;2023-04-23T04:23:51;12.30;;;7.30;;
69795;SDS011;57073;45.650;9.612;2023-04-23T04:28:52;10.00;;;7.17;;
69795;SDS011;57073;45.650;9.612;2023-04-23T04:33:53;11.13;;;7.37;;
69795;SDS011;57073;45.650;9.612;2023-04-23T04:38:54;12.37;;;7.43;;
69795;SDS011;57073;45.650;9.612;2023-04-23T04:43:57;10.48;;;6.68;;
69795;SDS011;57073;45.650;9.612;2023-04-23T04:48:57;9.50;;;6.47;;
69795;SDS011;57073;45.650;9.612;2023-04-23T04:53:57;9.33;;;6.23;;
69795;SDS011;57073;45.650;9.612;2023-04-23T04:58:58;9.13;;;6.13;;
69795;SDS011;57073;45.650;9.612;2023-04-23T05:03:58;9.07;;;5.77;;
69795;SDS011;57073;45.650;9.612;2023-04-23T05:08:59;8.33;;;5.33;;
69795;SDS011;57073;45.650;9.612;2023-04-23T05:13:59;9.33;;;5.90;;
69795;SDS011;57073;45.650;9.612;2023-04-23T05:19:00;9.48;;;5.57;;
69795;SDS011;57073;45.650;9.612;2023-04-23T05:24:00;7.70;;;5.67;;
69795;SDS011;57073;45.650;9.612;2023-04-23T05:29:00;8.87;;;5.77;;
69795;SDS011;57073;45.650;9.612;2023-04-23T05:34:01;9.00;;;5.90;;
69795;SDS011;57073;45.650;9.612;2023-04-23T05:39:01;9.23;;;5.50;;
69795;SDS011;57073;45.650;9.612;2023-04-23T05:44:01;7.23;;;5.30;;
69795;SDS011;57073;45.650;9.612;2023-04-23T05:49:02;8.13;;;5.23;;
69795;SDS011;57073;45.650;9.612;2023-04-23T05:54:02;11.60;;;6.13;;
69795;SDS011;57073;45.650;9.612;2023-04-23T05:59:02;8.70;;;5.23;;
69795;SDS011;57073;45.650;9.612;2023-04-23T06:04:03;11.30;;;6.07;;
69795;SDS011;57073;45.650;9.612;2023-04-23T06:09:03;7.73;;;5.60;;
69795;SDS011;57073;45.650;9.612;2023-04-23T06:14:04;8.77;;;5.53;;
69795;SDS011;57073;45.650;9.612;2023-04-23T06:19:04;10.20;;;5.83;;
69795;SDS011;57073;45.650;9.612;2023-04-23T06:24:05;8.27;;;5.77;;
69795;SDS011;57073;45.650;9.612;2023-04-23T06:29:07;8.20;;;5.63;;
69795;SDS011;57073;45.650;9.612;2023-04-23T06:34:07;6.33;;;4.97;;
69795;SDS011;57073;45.650;9.612;2023-04-23T06:39:08;8.43;;;5.45;;
69795;SDS011;57073;45.650;9.612;2023-04-23T06:44:08;7.73;;;5.63;;
69795;SDS011;57073;45.650;9.612;2023-04-23T06:49:09;9.13;;;5.65;;
69795;SDS011;57073;45.650;9.612;2023-04-23T06:54:09;9.53;;;5.27;;
69795;SDS011;57073;45.650;9.612;2023-04-23T06:59:10;8.57;;;5.40;;
69795;SDS011;57073;45.650;9.612;2023-04-23T07:04:10;8.87;;;5.47;;
69795;SDS011;57073;45.650;9.612;2023-04-23T07:09:10;7.93;;;5.83;;
69795;SDS011;57073;45.650;9.612;2023-04-23T07:14:11;8.20;;;5.70;;
69795;SDS011;57073;45.650;9.612;2023-04-23T07:19:12;8.13;;;5.90;;
69795;SDS011;57073;45.650;9.612;2023-04-23T07:24:12;9.03;;;6.03;;
69795;SDS011;57073;45.650;9.612;2023-04-23T07:29:12;9.83;;;6.17;;
69795;SDS011;57073;45.650;9.612;2023-04-23T07:34:14;8.70;;;5.95;;
69795;SDS011;57073;45.650;9.612;2023-04-23T07:39:14;10.63;;;6.80;;
69795;SDS011;57073;45.650;9.612;2023-04-23T07:44:15;11.03;;;7.73;;
69795;SDS011;57073;45.650;9.612;2023-04-23T07:49:15;11.43;;;7.33;;
69795;SDS011;57073;45.650;9.612;2023-04-23T07:54:16;12.47;;;8.50;;
69795;SDS011;57073;45.650;9.612;2023-04-23T07:59:16;13.30;;;8.77;;
69795;SDS011;57073;45.650;9.612;2023-04-23T08:04:17;15.23;;;9.55;;
69795;SDS011;57073;45.650;9.612;2023-04-23T08:09:17;14.03;;;9.87;;
69795;SDS011;57073;45.650;9.612;2023-04-23T08:14:17;16.00;;;10.15;;
69795;SDS011;57073;45.650;9.612;2023-04-23T08:19:18;15.70;;;9.60;;
69795;SDS011;57073;45.650;9.612;2023-04-23T08:24:18;14.40;;;9.03;;
69795;SDS011;57073;45.650;9.612;2023-04-23T08:29:18;29.87;;;12.50;;
69795;SDS011;57073;45.650;9.612;2023-04-23T08:34:19;18.07;;;10.70;;
69795;SDS011;57073;45.650;9.612;2023-04-23T08:39:19;16.80;;;11.30;;
69795;SDS011;57073;45.650;9.612;2023-04-23T08:44:23;16.37;;;11.00;;
69795;SDS011;57073;45.650;9.612;2023-04-23T08:49:25;14.83;;;11.47;;
69795;SDS011;57073;45.650;9.612;2023-04-23T08:54:31;18.13;;;12.18;;
69795;SDS011;57073;45.650;9.612;2023-04-23T08:59:36;18.48;;;12.68;;
69795;SDS011;57073;45.650;9.612;2023-04-23T09:04:38;16.27;;;11.77;;
69795;SDS011;57073;45.650;9.612;2023-04-23T09:09:39;17.53;;;11.70;;
69795;SDS011;57073;45.650;9.612;2023-04-23T09:14:40;16.23;;;11.35;;
69795;SDS011;57073;45.650;9.612;2023-04-23T09:19:40;17.97;;;12.10;;
69795;SDS011;57073;45.650;9.612;2023-04-23T09:24:41;18.60;;;12.57;;
69795;SDS011;57073;45.650;9.612;2023-04-23T09:29:43;19.20;;;12.90;;
69795;SDS011;57073;45.650;9.612;2023-04-23T09:34:43;20.03;;;13.30;;
69795;SDS011;57073;45.650;9.612;2023-04-23T09:39:44;19.52;;;13.20;;
69795;SDS011;57073;45.650;9.612;2023-04-23T09:44:44;20.60;;;13.97;;
69795;SDS011;57073;45.650;9.612;2023-04-23T09:49:55;22.05;;;15.40;;
69795;SDS011;57073;45.650;9.612;2023-04-23T09:54:56;21.93;;;15.20;;
69795;SDS011;57073;45.650;9.612;2023-04-23T09:59:58;25.90;;;16.00;;
69795;SDS011;57073;45.650;9.612;2023-04-23T10:04:58;27.83;;;15.70;;
69795;SDS011;57073;45.650;9.612;2023-04-23T10:09:59;24.20;;;16.07;;
69795;SDS011;57073;45.650;9.612;2023-04-23T10:14:59;23.27;;;16.20;;
69795;SDS011;57073;45.650;9.612;2023-04-23T10:19:59;25.07;;;16.50;;
69795;SDS011;57073;45.650;9.612;2023-04-23T10:25:03;27.20;;;16.85;;
69795;SDS011;57073;45.650;9.612;2023-04-23T10:30:09;26.15;;;17.05;;
69795;SDS011;57073;45.650;9.612;2023-04-23T10:35:10;25.43;;;16.13;;
69795;SDS011;57073;45.650;9.612;2023-04-23T10:40:11;26.77;;;18.20;;
69795;SDS011;57073;45.650;9.612;2023-04-23T10:45:14;27.30;;;16.70;;
69795;SDS011;57073;45.650;9.612;2023-04-23T10:50:20;26.02;;;16.30;;
69795;SDS011;57073;45.650;9.612;2023-04-23T10:55:25;23.80;;;16.52;;
69795;SDS011;57073;45.650;9.612;2023-04-23T11:00:27;24.63;;;16.70;;
69795;SDS011;57073;45.650;9.612;2023-04-23T11:05:29;26.08;;;17.02;;
69795;SDS011;57073;45.650;9.612;2023-04-23T11:10:30;26.57;;;17.07;;
69795;SDS011;57073;45.650;9.612;2023-04-23T11:15:31;26.05;;;17.58;;
69795;SDS011;57073;45.650;9.612;2023-04-23T11:20:31;24.87;;;16.80;;
69795;SDS011;57073;45.650;9.612;2023-04-23T11:25:32;25.33;;;16.10;;
69795;SDS011;57073;45.650;9.612;2023-04-23T11:30:34;25.67;;;16.08;;
69795;SDS011;57073;45.650;9.612;2023-04-23T11:35:35;18.73;;;12.17;;
69795;SDS011;57073;45.650;9.612;2023-04-23T11:40:39;26.53;;;16.53;;
69795;SDS011;57073;45.650;9.612;2023-04-23T11:45:41;20.50;;;13.05;;
69795;SDS011;57073;45.650;9.612;2023-04-23T11:50:42;18.43;;;12.50;;
69795;SDS011;57073;45.650;9.612;2023-04-23T11:55:42;18.83;;;12.17;;
69795;SDS011;57073;45.650;9.612;2023-04-23T12:00:44;11.82;;;7.72;;
69795;SDS011;57073;45.650;9.612;2023-04-23T12:05:45;13.60;;;7.90;;
69795;SDS011;57073;45.650;9.612;2023-04-23T12:10:59;10.00;;;7.00;;
69795;SDS011;57073;45.650;9.612;2023-04-23T12:16:01;14.80;;;7.93;;
69795;SDS011;57073;45.650;9.612;2023-04-23T12:21:12;17.25;;;10.93;;
69795;SDS011;57073;45.650;9.612;2023-04-23T12:26:14;16.90;;;11.73;;
69795;SDS011;57073;45.650;9.612;2023-04-23T12:31:18;19.40;;;13.35;;
69795;SDS011;57073;45.650;9.612;2023-04-23T12:36:24;19.95;;;13.65;;
69795;SDS011;57073;45.650;9.612;2023-04-23T12:41:27;19.57;;;13.20;;
69795;SDS011;57073;45.650;9.612;2023-04-23T12:46:27;17.05;;;12.05;;
69795;SDS011;57073;45.650;9.612;2023-04-23T12:51:27;15.75;;;11.40;;
69795;SDS011;57073;45.650;9.612;2023-04-23T12:56:28;16.87;;;11.33;;
69795;SDS011;57073;45.650;9.612;2023-04-23T13:01:28;13.60;;;9.27;;
69795;SDS011;57073;45.650;9.612;2023-04-23T13:06:28;11.20;;;8.23;;
69795;SDS011;57073;45.650;9.612;2023-04-23T13:11:30;12.33;;;8.63;;
69795;SDS011;57073;45.650;9.612;2023-04-23T13:16:31;8.20;;;5.80;;
69795;SDS011;57073;45.650;9.612;2023-04-23T13:21:32;8.35;;;5.53;;
69795;SDS011;57073;45.650;9.612;2023-04-23T13:26:32;9.93;;;6.30;;
69795;SDS011;57073;45.650;9.612;2023-04-23T13:31:33;9.17;;;6.33;;
69795;SDS011;57073;45.650;9.612;2023-04-23T13:36:33;10.70;;;7.27;;
69795;SDS011;57073;45.650;9.612;2023-04-23T13:41:34;12.40;;;8.73;;
69795;SDS011;57073;45.650;9.612;2023-04-23T13:46:34;8.80;;;6.07;;
69795;SDS011;57073;45.650;9.612;2023-04-23T13:51:35;6.20;;;4.37;;
69795;SDS011;57073;45.650;9.612;2023-04-23T13:56:35;8.67;;;5.60;;
69795;SDS011;57073;45.650;9.612;2023-04-23T14:01:36;10.13;;;7.30;;
69795;SDS011;57073;45.650;9.612;2023-04-23T14:06:36;12.93;;;8.80;;
69795;SDS011;57073;45.650;9.612;2023-04-23T14:11:37;11.63;;;8.00;;
69795;SDS011;57073;45.650;9.612;2023-04-23T14:16:39;12.73;;;9.45;;
69795;SDS011;57073;45.650;9.612;2023-04-23T14:21:39;19.77;;;12.93;;
69795;SDS011;57073;45.650;9.612;2023-04-23T14:26:40;16.63;;;11.60;;
69795;SDS011;57073;45.650;9.612;2023-04-23T14:31:41;17.35;;;11.65;;
69795;SDS011;57073;45.650;9.612;2023-04-23T14:36:41;15.93;;;10.40;;
69795;SDS011;57073;45.650;9.612;2023-04-23T14:41:42;18.07;;;11.80;;
69795;SDS011;57073;45.650;9.612;2023-04-23T14:46:42;16.67;;;12.00;;
69795;SDS011;57073;45.650;9.612;2023-04-23T14:51:43;16.90;;;11.50;;
69795;SDS011;57073;45.650;9.612;2023-04-23T14:56:43;16.40;;;10.88;;
69795;SDS011;57073;45.650;9.612;2023-04-23T15:01:44;21.67;;;11.60;;
69795;SDS011;57073;45.650;9.612;2023-04-23T15:06:44;13.97;;;9.67;;
69795;SDS011;57073;45.650;9.612;2023-04-23T15:11:45;15.70;;;9.90;;
69795;SDS011;57073;45.650;9.612;2023-04-23T15:16:45;13.73;;;9.70;;
69795;SDS011;57073;45.650;9.612;2023-04-23T15:21:46;12.73;;;8.43;;
69795;SDS011;57073;45.650;9.612;2023-04-23T15:26:47;11.05;;;7.75;;
69795;SDS011;57073;45.650;9.612;2023-04-23T15:31:48;14.73;;;8.37;;
69795;SDS011;57073;45.650;9.612;2023-04-23T15:36:50;12.07;;;8.30;;
69795;SDS011;57073;45.650;9.612;2023-04-23T15:41:51;11.90;;;8.33;;
69795;SDS011;57073;45.650;9.612;2023-04-23T15:46:52;11.32;;;7.57;;
69795;SDS011;57073;45.650;9.612;2023-04-23T15:51:53;9.03;;;5.93;;
69795;SDS011;57073;45.650;9.612;2023-04-23T15:56:53;7.90;;;5.70;;
69795;SDS011;57073;45.650;9.612;2023-04-23T16:01:55;11.57;;;6.90;;
69795;SDS011;57073;45.650;9.612;2023-04-23T16:06:56;8.00;;;6.30;;
69795;SDS011;57073;45.650;9.612;2023-04-23T16:11:56;9.37;;;6.47;;
69795;SDS011;57073;45.650;9.612;2023-04-23T16:16:57;11.50;;;7.37;;
69795;SDS011;57073;45.650;9.612;2023-04-23T16:21:57;11.23;;;7.57;;
69795;SDS011;57073;45.650;9.612;2023-04-23T16:26:58;11.20;;;7.40;;
69795;SDS011;57073;45.650;9.612;2023-04-23T16:31:58;11.33;;;7.17;;
69795;SDS011;57073;45.650;9.612;2023-04-23T16:36:58;9.73;;;7.00;;
69795;SDS011;57073;45.650;9.612;2023-04-23T16:41:59;12.50;;;8.80;;
69795;SDS011;57073;45.650;9.612;2023-04-23T16:46:59;13.03;;;8.63;;
69795;SDS011;57073;45.650;9.612;2023-04-23T16:52:00;11.38;;;8.18;;
69795;SDS011;57073;45.650;9.612;2023-04-23T16:57:02;11.97;;;8.67;;
69795;SDS011;57073;45.650;9.612;2023-04-23T17:02:06;13.10;;;7.88;;
69795;SDS011;57073;45.650;9.612;2023-04-23T17:07:06;13.07;;;9.80;;
69795;SDS011;57073;45.650;9.612;2023-04-23T17:12:07;14.10;;;10.27;;
69795;SDS011;57073;45.650;9.612;2023-04-23T17:17:07;12.17;;;8.57;;
69795;SDS011;57073;45.650;9.612;2023-04-23T17:22:08;13.57;;;9.43;;
69795;SDS011;57073;45.650;9.612;2023-04-23T17:27:09;17.42;;;10.15;;
69795;SDS011;57073;45.650;9.612;2023-04-23T17:32:10;14.63;;;9.67;;
69795;SDS011;57073;45.650;9.612;2023-04-23T17:37:10;16.57;;;10.80;;
69795;SDS011;57073;45.650;9.612;2023-04-23T17:42:11;12.30;;;8.67;;
69795;SDS011;57073;45.650;9.612;2023-04-23T17:47:12;13.20;;;7.73;;
69795;SDS011;57073;45.650;9.612;2023-04-23T17:52:13;21.47;;;11.13;;
69795;SDS011;57073;45.650;9.612;2023-04-23T17:57:13;17.90;;;8.45;;
69795;SDS011;57073;45.650;9.612;2023-04-23T18:02:14;12.87;;;7.17;;
69795;SDS011;57073;45.650;9.612;2023-04-23T18:07:15;12.43;;;7.38;;
69795;SDS011;57073;45.650;9.612;2023-04-23T18:12:15;10.50;;;7.00;;
69795;SDS011;57073;45.650;9.612;2023-04-23T18:17:15;18.67;;;11.03;;
69795;SDS011;57073;45.650;9.612;2023-04-23T18:22:16;15.47;;;9.20;;
69795;SDS011;57073;45.650;9.612;2023-04-23T18:27:16;20.90;;;12.93;;
69795;SDS011;57073;45.650;9.612;2023-04-23T18:32:17;30.03;;;15.90;;
69795;SDS011;57073;45.650;9.612;2023-04-23T18:37:31;9.93;;;6.00;;
69795;SDS011;57073;45.650;9.612;2023-04-23T18:42:35;9.37;;;6.10;;
69795;SDS011;57073;45.650;9.612;2023-04-23T18:47:36;9.90;;;5.87;;
69795;SDS011;57073;45.650;9.612;2023-04-23T18:52:49;14.07;;;7.00;;
69795;SDS011;57073;45.650;9.612;2023-04-23T18:57:50;13.20;;;8.25;;
69795;SDS011;57073;45.650;9.612;2023-04-23T19:02:50;14.53;;;8.70;;
69795;SDS011;57073;45.650;9.612;2023-04-23T19:07:51;15.63;;;9.77;;
69795;SDS011;57073;45.650;9.612;2023-04-23T19:12:51;19.40;;;10.37;;
69795;SDS011;57073;45.650;9.612;2023-04-23T19:17:52;15.07;;;10.20;;
69795;SDS011;57073;45.650;9.612;2023-04-23T19:22:52;15.60;;;10.20;;
69795;SDS011;57073;45.650;9.612;2023-04-23T19:27:52;14.23;;;9.70;;
69795;SDS011;57073;45.650;9.612;2023-04-23T19:32:53;13.87;;;9.77;;
69795;SDS011;57073;45.650;9.612;2023-04-23T19:37:53;14.80;;;9.23;;
69795;SDS011;57073;45.650;9.612;2023-04-23T19:42:54;11.97;;;8.67;;
69795;SDS011;57073;45.650;9.612;2023-04-23T19:47:58;13.40;;;9.40;;
69795;SDS011;57073;45.650;9.612;2023-04-23T19:52:59;13.30;;;8.67;;
69795;SDS011;57073;45.650;9.612;2023-04-23T19:57:59;12.35;;;8.30;;
69795;SDS011;57073;45.650;9.612;2023-04-23T20:02:59;13.50;;;7.67;;
69795;SDS011;57073;45.650;9.612;2023-04-23T20:08:00;15.40;;;9.67;;
69795;SDS011;57073;45.650;9.612;2023-04-23T20:13:03;15.83;;;9.80;;
69795;SDS011;57073;45.650;9.612;2023-04-23T20:18:03;16.43;;;11.67;;
69795;SDS011;57073;45.650;9.612;2023-04-23T20:23:04;15.98;;;10.82;;
69795;SDS011;57073;45.650;9.612;2023-04-23T20:28:05;16.63;;;10.77;;
69795;SDS011;57073;45.650;9.612;2023-04-23T20:33:05;15.57;;;11.57;;
69795;SDS011;57073;45.650;9.612;2023-04-23T20:38:06;16.30;;;10.60;;
69795;SDS011;57073;45.650;9.612;2023-04-23T20:43:06;19.77;;;10.53;;
69795;SDS011;57073;45.650;9.612;2023-04-23T20:48:07;15.37;;;10.23;;
69795;SDS011;57073;45.650;9.612;2023-04-23T20:53:08;17.20;;;10.85;;
69795;SDS011;57073;45.650;9.612;2023-04-23T20:58:09;16.60;;;11.17;;
69795;SDS011;57073;45.650;9.612;2023-04-23T21:03:09;16.03;;;10.70;;
69795;SDS011;57073;45.650;9.612;2023-04-23T21:08:10;17.02;;;10.52;;
69795;SDS011;57073;45.650;9.612;2023-04-23T21:13:10;15.70;;;10.47;;
69795;SDS011;57073;45.650;9.612;2023-04-23T21:18:11;14.97;;;10.23;;
69795;SDS011;57073;45.650;9.612;2023-04-23T21:23:11;16.07;;;10.93;;
69795;SDS011;57073;45.650;9.612;2023-04-23T21:28:11;16.93;;;9.83;;
69795;SDS011;57073;45.650;9.612;2023-04-23T21:33:14;16.55;;;10.52;;
69795;SDS011;57073;45.650;9.612;2023-04-23T21:38:16;15.90;;;10.10;;
69795;SDS011;57073;45.650;9.612;2023-04-23T21:43:17;18.45;;;10.70;;
69795;SDS011;57073;45.650;9.612;2023-04-23T21:48:18;16.03;;;10.70;;
69795;SDS011;57073;45.650;9.612;2023-04-23T21:53:18;18.57;;;11.00;;
69795;SDS011;57073;45.650;9.612;2023-04-23T21:58:21;16.65;;;9.93;;
69795;SDS011;57073;45.650;9.612;2023-04-23T22:03:21;16.20;;;10.40;;
69795;SDS011;57073;45.650;9.612;2023-04-23T22:08:23;15.43;;;9.97;;
69795;SDS011;57073;45.650;9.612;2023-04-23T22:13:23;15.33;;;10.20;;
69795;SDS011;57073;45.650;9.612;2023-04-23T22:18:24;15.07;;;9.13;;
69795;SDS011;57073;45.650;9.612;2023-04-23T22:23:25;14.00;;;9.77;;
69795;SDS011;57073;45.650;9.612;2023-04-23T22:28:25;13.30;;;9.80;;
69795;SDS011;57073;45.650;9.612;2023-04-23T22:33:25;14.27;;;9.50;;
69795;SDS011;57073;45.650;9.612;2023-04-23T22:38:27;15.90;;;10.43;;
69795;SDS011;57073;45.650;9.612;2023-04-23T22:43:27;15.00;;;10.30;;
69795;SDS011;57073;45.650;9.612;2023-04-23T22:48:27;15.33;;;10.17;;
69795;SDS011;57073;45.650;9.612;2023-04-23T22:53:29;17.20;;;10.10;;
69795;SDS011;57073;45.650;9.612;2023-04-23T22:58:30;17.53;;;10.50;;
69795;SDS011;57073;45.650;9.612;2023-04-23T23:03:30;15.80;;;10.23;;
69795;SDS011;57073;45.650;9.612;2023-04-23T23:08:30;16.20;;;10.00;;
69795;SDS011;57073;45.650;9.612;2023-04-23T23:13:31;16.07;;;10.27;;
69795;SDS011;57073;45.650;9.612;2023-04-23T23:18:31;16.00;;;10.33;;
69795;SDS011;57073;45.650;9.612;2023-04-23T23:23:31;16.23;;;10.00;;
69795;SDS011;57073;45.650;9.612;2023-04-23T23:28:32;10.60;;;7.27;;
69795;SDS011;57073;45.650;9.612;2023-04-23T23:33:32;8.43;;;5.50;;
69795;SDS011;57073;45.650;9.612;2023-04-23T23:38:35;6.47;;;4.28;;
69795;SDS011;57073;45.650;9.612;2023-04-23T23:43:35;6.37;;;3.50;;
69795;SDS011;57073;45.650;9.612;2023-04-23T23:48:35;5.47;;;3.37;;
69795;SDS011;57073;45.650;9.612;2023-04-23T23:53:36;5.37;;;3.70;;
69795;SDS011;57073;45.650;9.612;2023-04-23T23:58:36;5.37;;;3.57;;
